createdAt,value
2023-04-08T00:01:21.621Z,15.47
2023-04-08T00:06:28.383Z,16.47
2023-04-08T00:11:35.392Z,16.80
2023-04-08T00:16:42.299Z,15.77
2023-04-08T00:21:49.229Z,14.07
2023-04-08T00:26:57.344Z,14.87
2023-04-08T00:32:04.616Z,16.13
2023-04-08T00:37:12.286Z,17.80
2023-04-08T00:42:19.673Z,16.53
2023-04-08T00:47:27.224Z,15.93
2023-04-08T00:52:38.884Z,16.53
2023-04-08T00:57:42.713Z,15.43
2023-04-08T01:02:54.314Z,15.67
2023-04-08T01:08:04.842Z,18.70
2023-04-08T01:13:14.597Z,16.63
2023-04-08T01:18:23.270Z,18.27
2023-04-08T01:24:04.840Z,16.90
2023-04-08T01:29:13.692Z,19.87
2023-04-08T01:34:22.117Z,18.13
2023-04-08T01:39:30.875Z,16.57
2023-04-08T01:44:38.427Z,18.73
2023-04-08T01:49:46.576Z,17.33
2023-04-08T01:54:54.401Z,17.37
2023-04-08T02:00:08.010Z,16.63
2023-04-08T02:05:15.760Z,18.55
2023-04-08T02:10:22.882Z,17.20
2023-04-08T02:15:33.827Z,17.57
2023-04-08T02:20:46.249Z,16.90
2023-04-08T02:25:55.082Z,16.43
2023-04-08T02:31:03.108Z,17.47
2023-04-08T02:36:11.180Z,17.43
2023-04-08T02:41:18.596Z,18.23
2023-04-08T02:46:25.392Z,18.07
2023-04-08T02:51:32.582Z,15.37
2023-04-08T02:56:39.319Z,15.40
2023-04-08T03:01:46.348Z,16.57
2023-04-08T03:06:53.075Z,16.53
2023-04-08T03:11:59.937Z,16.73
2023-04-08T03:17:07.465Z,16.27
2023-04-08T03:22:15.288Z,15.13
2023-04-08T03:27:22.050Z,16.50
2023-04-08T03:32:28.803Z,14.60
2023-04-08T03:37:35.607Z,14.30
2023-04-08T03:42:42.345Z,16.80
2023-04-08T03:47:49.126Z,17.67
2023-04-08T03:52:56.049Z,17.23
2023-04-08T03:58:02.877Z,19.07
2023-04-08T04:03:11.195Z,17.33
2023-04-08T04:08:18.109Z,17.73
2023-04-08T04:13:24.894Z,18.03
2023-04-08T04:18:31.691Z,17.43
2023-04-08T04:23:38.458Z,18.07
2023-04-08T04:28:45.211Z,17.63
2023-04-08T04:33:52.197Z,16.53
2023-04-08T04:38:58.937Z,18.13
2023-04-08T04:44:05.706Z,19.97
2023-04-08T04:49:12.474Z,21.20
2023-04-08T04:54:20.846Z,17.40
2023-04-08T04:59:27.930Z,21.23
2023-04-08T05:04:34.721Z,20.47
2023-04-08T05:09:41.560Z,19.93
2023-04-08T05:14:48.493Z,22.43
2023-04-08T05:19:55.258Z,19.60
2023-04-08T05:25:03.618Z,19.67
2023-04-08T05:30:11.501Z,20.17
2023-04-08T05:35:18.388Z,21.47
2023-04-08T05:40:25.278Z,22.73
2023-04-08T05:45:32.459Z,22.20
2023-04-08T05:50:39.336Z,18.63
2023-04-08T05:55:47.098Z,18.80
2023-04-08T06:00:56.004Z,23.47
2023-04-08T06:06:02.770Z,22.73
2023-04-08T06:11:09.485Z,20.07
2023-04-08T06:16:20.971Z,20.77
2023-04-08T06:21:26.948Z,21.40
2023-04-08T06:26:33.703Z,49.50
2023-04-08T06:31:40.731Z,32.47
2023-04-08T06:36:47.475Z,21.43
2023-04-08T06:41:55.195Z,20.97
2023-04-08T06:47:02.203Z,24.37
2023-04-08T06:52:09.436Z,23.67
2023-04-08T06:57:17.796Z,23.30
2023-04-08T07:02:24.866Z,23.23
2023-04-08T07:07:32.823Z,21.80
2023-04-08T07:12:40.035Z,23.20
2023-04-08T07:17:47.971Z,20.63
2023-04-08T07:22:55.000Z,24.50
2023-04-08T07:28:02.286Z,24.97
2023-04-08T07:33:09.158Z,23.50
2023-04-08T07:38:16.957Z,23.90
2023-04-08T07:43:23.803Z,26.57
2023-04-08T07:48:30.914Z,26.50
2023-04-08T07:53:37.824Z,26.63
2023-04-08T07:58:44.910Z,26.13
2023-04-08T08:03:53.759Z,28.70
2023-04-08T08:09:01.642Z,35.30
2023-04-08T08:14:08.577Z,35.17
2023-04-08T08:19:15.419Z,32.67
2023-04-08T08:24:22.304Z,35.13
2023-04-08T08:29:29.093Z,36.97
2023-04-08T08:34:36.806Z,38.63
2023-04-08T08:39:43.734Z,36.03
2023-04-08T08:44:51.170Z,43.00
2023-04-08T08:49:57.975Z,36.57
2023-04-08T08:55:17.003Z,40.20
2023-04-08T09:00:16.432Z,35.93
2023-04-08T09:05:24.582Z,34.77
2023-04-08T09:10:31.714Z,33.00
2023-04-08T09:15:40.818Z,35.47
2023-04-08T09:20:57.244Z,33.37
2023-04-08T09:26:13.587Z,38.60
2023-04-08T09:31:29.046Z,35.73
2023-04-08T09:36:35.811Z,35.07
2023-04-08T09:41:44.957Z,34.67
2023-04-08T09:47:07.071Z,35.53
2023-04-08T09:52:33.654Z,36.47
2023-04-08T09:58:02.624Z,35.40
2023-04-08T10:03:30.543Z,33.53
2023-04-08T10:08:38.255Z,34.73
2023-04-08T10:13:45.649Z,33.40
2023-04-08T10:18:54.580Z,35.77
2023-04-08T10:24:03.812Z,36.40
2023-04-08T10:29:30.114Z,33.50
2023-04-08T10:34:36.876Z,35.20
2023-04-08T10:39:48.110Z,35.83
2023-04-08T10:44:54.843Z,36.87
2023-04-08T10:50:02.756Z,36.20
2023-04-08T10:55:10.811Z,37.30
2023-04-08T11:00:24.170Z,40.10
2023-04-08T11:05:30.640Z,39.57
2023-04-08T11:10:41.502Z,39.13
2023-04-08T11:15:48.510Z,37.07
2023-04-08T11:20:58.900Z,40.07
2023-04-08T11:26:08.359Z,40.17
2023-04-08T11:31:15.886Z,42.10
2023-04-08T11:36:22.823Z,36.80
2023-04-08T11:41:39.664Z,33.97
2023-04-08T11:46:57.636Z,37.00
2023-04-08T11:52:04.489Z,34.73
2023-04-08T11:57:11.881Z,33.87
2023-04-08T12:02:18.835Z,31.87
2023-04-08T12:07:26.919Z,30.87
2023-04-08T12:12:33.985Z,34.30
2023-04-08T12:17:41.179Z,37.87
2023-04-08T12:22:49.000Z,31.93
2023-04-08T12:27:55.840Z,30.80
2023-04-08T12:33:03.126Z,32.10
2023-04-08T12:38:10.275Z,35.17
2023-04-08T12:43:17.911Z,32.83
2023-04-08T12:48:24.931Z,32.17
2023-04-08T12:53:31.760Z,31.60
2023-04-08T12:58:38.866Z,29.87
2023-04-08T13:03:47.366Z,31.93
2023-04-08T13:08:54.758Z,32.80
2023-04-08T13:14:02.884Z,31.60
2023-04-08T13:19:10.295Z,29.27
2023-04-08T13:24:17.258Z,27.47
2023-04-08T13:29:24.574Z,27.47
2023-04-08T13:34:32.037Z,29.57
2023-04-08T13:39:39.438Z,28.53
2023-04-08T13:44:46.553Z,28.33
2023-04-08T13:49:54.259Z,31.13
2023-04-08T13:55:01.216Z,28.93
2023-04-08T14:00:10.937Z,28.87
2023-04-08T14:05:19.375Z,25.67
2023-04-08T14:10:27.423Z,28.83
2023-04-08T14:15:34.412Z,26.80
2023-04-08T14:20:42.068Z,25.10
2023-04-08T14:25:49.385Z,27.23
2023-04-08T14:30:56.437Z,25.43
2023-04-08T14:36:03.919Z,24.87
2023-04-08T14:41:10.918Z,23.77
2023-04-08T14:46:18.464Z,24.23
2023-04-08T14:51:27.416Z,22.67
2023-04-08T14:56:34.290Z,21.47
2023-04-08T15:01:41.875Z,21.10
2023-04-08T15:06:49.299Z,24.23
2023-04-08T15:11:56.878Z,21.37
2023-04-08T15:17:03.715Z,21.53
2023-04-08T15:22:10.684Z,21.43
2023-04-08T15:27:17.766Z,22.30
2023-04-08T15:32:24.757Z,27.80
2023-04-08T15:37:32.794Z,22.87
2023-04-08T15:42:40.008Z,21.00
2023-04-08T15:47:46.739Z,20.97
2023-04-08T15:52:54.147Z,27.40
2023-04-08T15:58:01.194Z,29.67
2023-04-08T16:03:09.705Z,22.77
2023-04-08T16:08:16.847Z,33.90
2023-04-08T16:13:23.801Z,27.20
2023-04-08T16:18:31.051Z,26.63
2023-04-08T16:23:38.562Z,25.73
2023-04-08T16:28:45.441Z,24.27
2023-04-08T16:33:52.809Z,24.03
2023-04-08T16:38:59.888Z,25.40
2023-04-08T16:44:07.213Z,26.43
2023-04-08T16:49:15.626Z,27.47
2023-04-08T16:54:23.064Z,26.90
2023-04-08T16:59:30.588Z,28.17
2023-04-08T17:04:37.706Z,24.20
2023-04-08T17:09:44.714Z,25.27
2023-04-08T17:14:51.552Z,26.53
2023-04-08T17:19:58.657Z,25.77
2023-04-08T17:25:06.379Z,26.53
2023-04-08T17:30:13.945Z,26.23
2023-04-08T17:35:20.757Z,27.10
2023-04-08T17:40:27.758Z,30.07
2023-04-08T17:45:34.571Z,52.73
2023-04-08T17:50:41.327Z,25.93
2023-04-08T17:55:49.750Z,24.37
2023-04-08T18:00:56.953Z,26.90
2023-04-08T18:06:03.805Z,40.60
2023-04-08T18:11:11.378Z,33.17
2023-04-08T18:16:20.773Z,38.30
2023-04-08T18:21:27.808Z,38.23
2023-04-08T18:26:34.853Z,55.47
2023-04-08T18:31:42.158Z,64.37
2023-04-08T18:36:49.012Z,143.13
2023-04-08T18:41:56.497Z,118.87
2023-04-08T18:47:03.471Z,96.63
2023-04-08T18:52:11.488Z,128.90
2023-04-08T18:57:18.376Z,71.07
2023-04-08T19:02:25.702Z,71.80
2023-04-08T19:07:33.156Z,50.57
2023-04-08T19:12:39.988Z,45.13
2023-04-08T19:17:47.703Z,21.17
2023-04-08T19:22:56.253Z,19.93
2023-04-08T19:28:03.414Z,22.77
2023-04-08T19:33:11.068Z,27.60
2023-04-08T19:38:18.183Z,26.87
2023-04-08T19:43:25.136Z,25.10
2023-04-08T19:48:33.546Z,23.27
2023-04-08T19:53:40.707Z,27.00
2023-04-08T19:58:48.692Z,24.83
2023-04-08T20:03:55.682Z,22.27
2023-04-08T20:09:04.728Z,31.83
2023-04-08T20:14:11.793Z,23.50
2023-04-08T20:19:18.511Z,88.33
2023-04-08T20:24:25.575Z,36.47
2023-04-08T20:29:33.576Z,19.37
2023-04-08T20:34:40.349Z,20.33
2023-04-08T20:39:47.651Z,25.00
2023-04-08T20:44:54.595Z,21.73
2023-04-08T20:50:05.904Z,39.87
2023-04-08T20:55:13.298Z,47.43
2023-04-08T21:00:20.230Z,64.20
2023-04-08T21:05:27.738Z,42.90
2023-04-08T21:10:35.043Z,42.13
2023-04-08T21:15:41.980Z,38.37
2023-04-08T21:20:50.972Z,26.93
2023-04-08T21:25:57.870Z,30.40
2023-04-08T21:31:12.860Z,173.93
2023-04-08T21:36:20.852Z,260.87
2023-04-08T21:41:30.324Z,138.37
2023-04-08T21:46:36.726Z,78.37
2023-04-08T21:51:43.632Z,80.20
2023-04-08T21:56:50.505Z,31.90
2023-04-08T22:01:57.590Z,91.30
2023-04-08T22:07:04.368Z,28.43
2023-04-08T22:12:12.823Z,29.13
2023-04-08T22:17:19.665Z,33.73
2023-04-08T22:22:26.527Z,28.23
2023-04-08T22:27:34.449Z,23.97
2023-04-08T22:32:41.628Z,25.80
2023-04-08T22:37:48.488Z,21.83
2023-04-08T22:42:56.619Z,22.27
2023-04-08T22:48:03.706Z,17.50
2023-04-08T22:53:11.317Z,16.13
2023-04-08T22:58:18.265Z,17.03
2023-04-08T23:03:25.321Z,14.90
2023-04-08T23:08:32.022Z,14.97
2023-04-08T23:13:40.838Z,15.70
2023-04-08T23:18:47.768Z,19.07
2023-04-08T23:23:56.185Z,19.77
2023-04-08T23:29:03.679Z,21.53
2023-04-08T23:34:10.805Z,21.23
2023-04-08T23:39:17.550Z,23.03
2023-04-08T23:44:24.386Z,19.13
2023-04-08T23:49:31.262Z,18.93
2023-04-08T23:54:38.387Z,19.00
2023-04-08T23:59:45.615Z,25.13
